Weather observations for the past three days for
Hazleton Municipal Airport
| Date | Time (edt) | Wind (kph) | Vis. (km) | Weather | Sky Cond. | Temperature (ºC) | Relative Humidity | Wind Chill (°C) | Heat Index (°C) | Pressure | Precipitation (cm) | ||||||
|---|---|---|---|---|---|---|---|---|---|---|---|---|---|---|---|---|---|
| Air | Dwpt | 6 hour | altimeter (cm) | sea level (mb) | 1 hr | 3 hr | 6 hr | ||||||||||
| Max. | Min. | ||||||||||||||||
| 07 | 04:15 | NW 7 | 16.09 | Partly Cloudy | SCT070 | 7 | 4 | 81% | 6 | 75.84 | 0.0 | ||||||
| 07 | 03:55 | NW 7 | 16.09 | Partly Cloudy | SCT012 SCT018 | 7 | 5 | 87% | 6 | 75.87 | 0.0 | ||||||
| 07 | 03:35 | NW 9 | 16.09 | Overcast | BKN012 OVC018 | 8 | 5 | 82% | 7 | 75.9 | 0.0 | ||||||
| 07 | 03:15 | W 7 | 16.09 | Overcast | OVC010 | 8 | 6 | 87% | 7 | 75.92 | 0.0 | ||||||
| 07 | 02:55 | NW 6 | 16.09 | Overcast | OVC012 | 8 | 6 | 87% | 75.9 | 0.0 | |||||||
| 07 | 02:35 | W 6 | 16.09 | Light Rain | SCT010 OVC017 | 8 | 6 | 87% | 75.92 | 0.0 | |||||||
| 07 | 02:15 | Calm | 16.09 | Overcast | SCT014 SCT020 OVC080 | 8 | 6 | 87% | 75.9 | 0.0 | |||||||
| 07 | 01:55 | Calm | 16.09 | Overcast | OVC090 | 8 | 6 | 87% | 75.9 | 0.0 | |||||||
| 07 | 01:35 | Calm | 16.09 | Light Rain | SCT024 SCT050 OVC090 | 8 | 6 | 87% | 75.92 | 0.0 | |||||||
| 07 | 01:15 | Calm | 16.09 | Light Rain | OVC080 | 8 | 5 | 82% | 75.9 | 0.0 | |||||||
| 07 | 00:55 | Calm | 16.09 | Overcast | OVC080 | 8 | 5 | 82% | 75.9 | 0.0 | |||||||
| 07 | 00:35 | NW 6 | 16.09 | Overcast | BKN090 OVC120 | 8 | 5 | 82% | 75.84 | 0.0 | |||||||
| 07 | 00:15 | NW 9 | 16.09 | Overcast | SCT035 OVC100 | 8 | 5 | 82% | 7 | 75.84 | 0.0 | ||||||
| 06 | 23:55 | NW 6 | 16.09 | Overcast | OVC033 | 8 | 5 | 82% | 75.9 | 0.0 | |||||||
| 06 | 23:35 | Calm | 16.09 | Overcast | OVC031 | 8 | 5 | 82% | 75.9 | 0.0 | |||||||
| 06 | 23:15 | NW 6 | 16.09 | Overcast | OVC027 | 8 | 5 | 82% | 75.87 | 0.0 | |||||||
| 06 | 22:55 | N 9 | 16.09 | Overcast | OVC025 | 8 | 6 | 87% | 7 | 75.84 | 0.0 | ||||||
| 06 | 22:35 | N 9 | 16.09 | Overcast | OVC025 | 8 | 6 | 87% | 7 | 75.87 | 0.0 | ||||||
| 06 | 22:15 | N 9 | 16.09 | Overcast | SCT018 OVC026 | 8 | 6 | 87% | 7 | 75.9 | 0.0 | ||||||
| 06 | 21:55 | N 11 | 16.09 | Overcast | SCT010 BKN016 OVC026 | 8 | 6 | 87% | 6 | 75.95 | 0.0 | ||||||
| 06 | 21:35 | N 9 | 16.09 | Overcast | SCT010 OVC016 | 8 | 6 | 87% | 7 | 75.92 | 0.0 | ||||||
| 06 | 21:15 | N 11 | 16.09 | Overcast | OVC014 | 8 | 6 | 87% | 6 | 75.92 | 0.0 | ||||||
| 06 | 20:55 | N 9 | 16.09 | Overcast | OVC012 | 8 | 6 | 87% | 7 | 75.87 | 0.0 | ||||||
| 06 | 20:35 | N 9 | 16.09 | Overcast | OVC008 | 9 | 7 | 87% | 8 | 75.84 | 0.0 | ||||||
| 06 | 20:15 | N 9 | 16.09 | Overcast | BKN008 OVC012 | 9 | 7 | 87% | 8 | 75.82 | 0.0 | ||||||
| 06 | 19:55 | N 7 | 16.09 | Overcast | OVC006 | 10 | 7 | 82% | 9 | 75.82 | 0.0 | ||||||
| 06 | 19:35 | NW 15 | 16.09 | Overcast | OVC006 | 10 | 8 | 88% | 8 | 75.77 | 0.0 | ||||||
| 06 | 19:15 | N 13 | 16.09 | Light Rain | OVC006 | 11 | 9 | 88% | 75.77 | 0.0 | |||||||
| 06 | 18:55 | N 13 G 33 | 16.09 | Light Rain | BKN006 BKN012 OVC046 | 12 | 10 | 88% | 75.74 | 0.0 | |||||||
| 06 | 18:35 | W 7 | 16.09 | Overcast | SCT012 BKN046 OVC060 | 16 | 12 | 77% | 75.67 | 0.0 | |||||||
| 06 | 18:15 | W 6 | 16.09 | Overcast | BKN012 BKN016 OVC041 | 16 | 13 | 83% | 75.67 | 0.0 | |||||||
| 06 | 17:55 | W 6 | 16.09 | Light Rain | BKN012 OVC018 | 16 | 13 | 83% | 75.64 | 0.0 | |||||||
| 06 | 17:35 | W 6 | 16.09 | Overcast | BKN012 BKN019 OVC045 | 16 | 13 | 83% | 75.64 | 0.0 | |||||||
| 06 | 17:15 | Calm | 16.09 | Overcast | BKN012 OVC018 | 17 | 13 | 77% | 75.59 | 0.0 | |||||||
| 06 | 16:55 | W 9 | 16.09 | Overcast | BKN012 OVC020 | 16 | 13 | 83% | 75.59 | 0.0 | |||||||
| 06 | 16:35 | Calm | 16.09 | Overcast | BKN012 OVC020 | 16 | 13 | 83% | 75.59 | 0.0 | |||||||
| 06 | 16:15 | W 6 | 16.09 | Overcast | OVC012 | 16 | 13 | 83% | 75.59 | 0.0 | |||||||
| 06 | 15:55 | Calm | 16.09 | Overcast | OVC010 | 16 | 13 | 83% | 75.59 | 0.0 | |||||||
| 06 | 15:35 | SW 7 | 16.09 | Overcast | OVC012 | 16 | 13 | 83% | 75.59 | 0.0 | |||||||
| 06 | 15:15 | SW 7 | 16.09 | Overcast | OVC010 | 16 | 13 | 83% | 75.59 | 0.0 | |||||||
| 06 | 14:55 | S 6 | 16.09 | Overcast | OVC008 | 15 | 14 | 94% | 75.62 | 0.0 | 0.03 | ||||||
| 06 | 14:35 | Calm | 11.27 | Overcast | OVC006 | 15 | 13 | 88% | 75.64 | 0.0 | 0.03 | ||||||
| 06 | 14:15 | Calm | 4.83 | Light Drizzle | BKN006 OVC009 | 15 | 13 | 88% | 75.64 | 0.0 | |||||||
| 06 | 13:55 | S 6 | 4.02 | Light Drizzle | OVC006 | 15 | 13 | 88% | 75.64 | 0.0 | 0.1 | ||||||
| 06 | 13:35 | Calm | 2.41 | Light Rain | OVC006 | 15 | 13 | 88% | 75.64 | 0.0 | 0.1 | ||||||
| 06 | 13:15 | SW 7 | 3.22 | Light Rain | OVC008 | 15 | 13 | 88% | 75.67 | 0.0 | 0.05 | ||||||
| 06 | 12:55 | S 6 | 16.09 | Light Rain | BKN008 OVC012 | 15 | 13 | 88% | 75.67 | 0.0 | 0.08 | ||||||
| 06 | 12:35 | S 11 | 6.44 | Rain | OVC010 | 15 | 13 | 88% | 75.64 | 0.0 | 0.05 | ||||||
| 06 | 12:15 | S 9 | 16.09 | Light Rain | BKN010 OVC014 | 15 | 13 | 88% | 75.64 | 0.0 | 0.03 | ||||||
| 06 | 11:55 | S 9 | 16.09 | Light Rain | BKN010 OVC015 | 15 | 13 | 88% | 75.64 | 0.0 | 0.25 | ||||||
| 06 | 11:35 | S 9 | 8.05 | Light Rain | OVC010 | 14 | 13 | 94% | 75.67 | 0.0 | 0.2 | ||||||
| 06 | 11:15 | S 9 | 4.83 | Rain | OVC012 | 14 | 12 | 88% | 75.69 | 0.0 | 0.13 | ||||||
| 06 | 10:55 | S 7 | 6.44 | Rain | OVC010 | 14 | 12 | 88% | 75.67 | 0.0 | 0.18 | ||||||
| 06 | 10:35 | S 11 | 8.05 | Light Rain | OVC012 | 15 | 13 | 88% | 75.67 | 0.0 | 0.08 | ||||||
| 06 | 10:15 | S 9 | 6.44 | Light Rain | BKN010 OVC013 | 14 | 12 | 88% | 75.67 | 0.0 | 0.03 | ||||||
| 06 | 09:55 | S 7 | 8.05 | Light Rain | OVC011 | 14 | 12 | 88% | 75.69 | 0.0 | 0.18 | ||||||
| 06 | 09:35 | Calm | 6.44 | Rain | BKN013 OVC060 | 14 | 12 | 88% | 75.72 | 0.0 | 0.15 | ||||||
| 06 | 09:15 | S 9 | 6.44 | Rain | SCT017 OVC065 | 14 | 12 | 88% | 75.72 | 0.0 | 0.08 | ||||||
| 06 | 08:55 | S 7 | 11.27 | Light Rain | SCT065 OVC075 | 15 | 12 | 82% | 75.74 | 0.0 | 0.05 | ||||||
| 06 | 08:35 | S 9 | 11.27 | Light Rain | SCT060 BKN075 OVC080 | 15 | 11 | 77% | 75.74 | 0.0 | |||||||
| 06 | 08:15 | S 7 | 16.09 | Light Rain | OVC075 | 16 | 11 | 72% | 75.74 | 0.0 | |||||||
| 06 | 07:55 | S 11 | 16.09 | Light Rain | OVC075 | 16 | 11 | 72% | 75.72 | 0.0 | |||||||
| 06 | 07:35 | S 7 | 16.09 | Light Rain | OVC075 | 16 | 10 | 68% | 75.69 | 0.0 | |||||||
| 06 | 07:15 | S 9 | 16.09 | Overcast | BKN075 OVC095 | 16 | 10 | 68% | 75.69 | 0.0 | |||||||
| 06 | 06:55 | S 9 | 16.09 | Overcast | BKN095 OVC120 | 16 | 10 | 68% | 75.69 | 0.0 | |||||||
| 06 | 06:35 | SE 9 | 16.09 | Mostly Cloudy | SCT060 BKN095 | 16 | 9 | 63% | 75.67 | 0.0 | |||||||
| 06 | 06:15 | S 9 | 16.09 | Overcast | BKN095 OVC110 | 16 | 8 | 59% | 75.67 | 0.0 | |||||||
| 06 | 05:55 | SE 6 | 16.09 | Overcast | OVC085 | 17 | 8 | 56% | 75.67 | 0.0 | |||||||
| 06 | 05:35 | S 9 | 16.09 | Overcast | OVC095 | 17 | 7 | 52% | 75.67 | 0.0 | |||||||
| 06 | 05:15 | S 7 | 16.09 | Mostly Cloudy | SCT095 BKN110 | 17 | 7 | 52% | 75.69 | 0.0 | |||||||
| 06 | 04:55 | S 9 | 16.09 | Mostly Cloudy | SCT095 BKN110 | 17 | 7 | 52% | 75.69 | 0.0 | |||||||
| 06 | 04:35 | S 6 | 16.09 | Mostly Cloudy | BKN100 | 17 | 7 | 52% | 75.69 | 0.0 | |||||||
| 06 | 04:15 | Calm | 16.09 | Overcast | OVC100 | 18 | 7 | 49% | 75.69 | 0.0 | |||||||
| 06 | 03:55 | S 11 | 16.09 | Overcast | BKN100 OVC120 | 18 | 7 | 49% | 75.69 | 0.0 | |||||||
| 06 | 03:35 | S 7 | 16.09 | Overcast | OVC110 | 18 | 6 | 46% | 75.69 | 0.0 | |||||||
| 06 | 03:15 | Calm | 16.09 | Overcast | OVC110 | 18 | 6 | 46% | 75.72 | 0.0 | |||||||
| 06 | 02:55 | S 7 | 16.09 | Overcast | OVC110 | 19 | 6 | 43% | 75.74 | 0.0 | |||||||
| 06 | 02:35 | S 13 | 16.09 | Overcast | OVC120 | 18 | 6 | 46% | 75.74 | 0.0 | |||||||
| 06 | 02:15 | S 7 | 16.09 | Mostly Cloudy | BKN120 | 18 | 5 | 43% | 75.77 | 0.0 | |||||||
| 06 | 01:55 | S 11 | 16.09 | Partly Cloudy | SCT120 | 18 | 5 | 43% | 75.77 | 0.0 | |||||||
| 06 | 01:35 | S 9 | 16.09 | Fair | CLR | 18 | 5 | 43% | 75.77 | 0.0 | |||||||
| 06 | 01:15 | S 9 | 16.09 | Fair | CLR | 18 | 5 | 43% | 75.79 | 0.0 | |||||||
| 06 | 00:55 | S 7 | 16.09 | Fair | CLR | 18 | 5 | 43% | 75.79 | 0.0 | |||||||
| 06 | 00:35 | S 6 | 16.09 | Fair | CLR | 17 | 5 | 45% | 75.79 | 0.0 | |||||||
| 06 | 00:15 | Calm | 16.09 | Fair | CLR | 18 | 5 | 43% | 75.79 | 0.0 | |||||||
| 05 | 23:55 | S 6 | 16.09 | Fair | CLR | 18 | 5 | 43% | 75.82 | 0.0 | |||||||
| 05 | 23:35 | S 6 | 16.09 | Fair | CLR | 18 | 5 | 43% | 75.82 | 0.0 | |||||||
| 05 | 23:15 | Calm | 16.09 | Fair | CLR | 18 | 5 | 43% | 75.79 | 0.0 | |||||||
| 05 | 22:55 | S 6 | 16.09 | Fair | CLR | 18 | 5 | 43% | 75.82 | 0.0 | |||||||
| 05 | 22:35 | Calm | 16.09 | Fair | CLR | 19 | 5 | 40% | 75.82 | 0.0 | |||||||
| 05 | 22:15 | S 6 | 16.09 | Fair | CLR | 19 | 5 | 40% | 75.82 | 0.0 | |||||||
| 05 | 21:55 | Calm | 16.09 | Partly Cloudy | SCT090 | 20 | 6 | 40% | 75.82 | 0.0 | |||||||
| 05 | 21:35 | S 6 | 16.09 | Overcast | OVC090 | 21 | 6 | 38% | 75.82 | 0.0 | |||||||
| 05 | 21:15 | S 7 | 16.09 | Overcast | OVC090 | 21 | 6 | 38% | 75.79 | 0.0 | |||||||
| 05 | 20:55 | S 9 | 16.09 | Overcast | OVC090 | 22 | 3 | 29% | 75.77 | 0.0 | |||||||
| 05 | 20:35 | S 11 | 16.09 | Overcast | OVC100 | 22 | 4 | 31% | 75.77 | 0.0 | |||||||
| 05 | 20:15 | S 6 | 16.09 | Overcast | OVC110 | 22 | 5 | 33% | 75.74 | 0.0 | |||||||
| 05 | 19:55 | S 9 | 16.09 | Mostly Cloudy | BKN110 | 23 | 5 | 31% | 75.72 | 0.0 | |||||||
| 05 | 19:35 | S 9 | 16.09 | Mostly Cloudy | BKN100 | 23 | 5 | 31% | 75.72 | 0.0 | |||||||
| 05 | 19:15 | S 15 | 16.09 | Overcast | OVC090 | 23 | 5 | 31% | 75.72 | 0.0 | |||||||
| 05 | 18:55 | S 9 | 16.09 | Overcast | OVC100 | 23 | 5 | 31% | 75.69 | 0.0 | |||||||
| 05 | 18:35 | S 13 G 30 | 16.09 | Overcast | OVC100 | 23 | 5 | 31% | 75.69 | 0.0 | |||||||
| 05 | 18:15 | S 11 G 33 | 16.09 | Overcast | OVC100 | 23 | 5 | 31% | 75.69 | 0.0 | |||||||
| 05 | 17:55 | S 15 G 30 | 16.09 | Overcast | OVC090 | 23 | 5 | 31% | 75.69 | 0.0 | |||||||
| 05 | 17:35 | S 7 | 16.09 | Overcast | SCT080 OVC090 | 23 | 5 | 31% | 75.69 | 0.0 | |||||||
| 05 | 17:15 | S 15 | 16.09 | Overcast | OVC090 | 24 | 5 | 29% | 25 | 75.67 | 0.0 | ||||||
| 05 | 16:55 | S 13 G 35 | 16.09 | Overcast | OVC090 | 24 | 5 | 29% | 25 | 75.67 | 0.0 | ||||||
| 05 | 16:35 | S 13 G 33 | 16.09 | Mostly Cloudy | BKN080 BKN110 | 25 | 5 | 28% | 25 | 75.67 | 0.0 | ||||||
| 05 | 16:15 | S 15 G 26 | 16.09 | Mostly Cloudy | SCT080 BKN120 | 26 | 5 | 26% | 26 | 75.67 | 0.0 | ||||||
| 05 | 15:55 | S 13 G 30 | 16.09 | Partly Cloudy | SCT070 SCT090 | 26 | 5 | 26% | 26 | 75.67 | 0.0 | ||||||
| 05 | 15:35 | S 20 G 31 | 16.09 | Partly Cloudy | SCT075 | 26 | 5 | 26% | 26 | 75.67 | 0.0 | ||||||
| 05 | 15:15 | S 17 G 30 | 16.09 | Partly Cloudy | SCT075 SCT090 | 27 | 5 | 24% | 26 | 75.69 | 0.0 | ||||||
| 05 | 14:55 | S 15 G 30 | 16.09 | Mostly Cloudy | BKN075 BKN095 | 25 | 4 | 26% | 25 | 75.72 | 0.0 | ||||||
| 05 | 14:35 | S 20 G 35 | 16.09 | Mostly Cloudy | SCT075 BKN090 | 26 | 3 | 23% | 26 | 75.72 | 0.0 | ||||||
| 05 | 14:15 | SW 17 G 31 | 16.09 | Partly Cloudy | SCT075 SCT085 | 26 | 3 | 23% | 26 | 75.74 | 0.0 | ||||||
| 05 | 13:55 | SW 15 | 16.09 | Partly Cloudy | SCT065 | 25 | 6 | 30% | 25 | 75.77 | 0.0 | ||||||
| 05 | 13:35 | SW 11 G 28 | 16.09 | Partly Cloudy | SCT065 | 25 | 6 | 30% | 25 | 75.77 | 0.0 | ||||||
| 05 | 13:15 | S 17 G 33 | 16.09 | Partly Cloudy | SCT065 | 25 | 5 | 28% | 25 | 75.77 | 0.0 | ||||||
| 05 | 12:55 | S 11 G 26 | 16.09 | Partly Cloudy | SCT065 | 25 | 5 | 28% | 25 | 75.79 | 0.0 | ||||||
| 05 | 12:35 | S 19 G 33 | 16.09 | Partly Cloudy | SCT075 | 25 | 6 | 30% | 25 | 75.79 | 0.0 | ||||||
| 05 | 12:15 | SW 15 G 28 | 16.09 | Partly Cloudy | SCT060 | 25 | 7 | 32% | 25 | 75.82 | 0.0 | ||||||
| 05 | 11:55 | SW 11 | 16.09 | Fair | CLR | 25 | 7 | 32% | 25 | 75.84 | 0.0 | ||||||
| 05 | 11:35 | SW 9 | 16.09 | Fair | CLR | 23 | 7 | 36% | 75.84 | 0.0 | |||||||
| 05 | 11:15 | S 11 | 16.09 | Fair | CLR | 23 | 7 | 36% | 75.84 | 0.0 | |||||||
| 05 | 10:55 | S 11 | 16.09 | Fair | CLR | 22 | 7 | 38% | 75.84 | 0.0 | |||||||
| 05 | 10:35 | S 7 | 16.09 | Fair | CLR | 22 | 8 | 41% | 75.87 | 0.0 | |||||||
| 05 | 10:15 | SW 9 | 16.09 | Fair | CLR | 21 | 7 | 40% | 75.87 | 0.0 | |||||||
| 05 | 09:55 | S 9 | 16.09 | Fair | CLR | 21 | 7 | 40% | 75.87 | 0.0 | |||||||
| 05 | 09:35 | S 6 | 16.09 | Fair | CLR | 21 | 7 | 40% | 75.87 | 0.0 | |||||||
| 05 | 09:15 | S 6 | 16.09 | Fair | CLR | 20 | 7 | 43% | 75.9 | 0.0 | |||||||
| 05 | 08:55 | SW 11 | 16.09 | Partly Cloudy | SCT110 | 20 | 7 | 43% | 75.87 | 0.0 | |||||||
| 05 | 08:35 | S 11 | 16.09 | Fair | CLR | 20 | 7 | 43% | 75.87 | 0.0 | |||||||
| 05 | 08:15 | SW 9 | 16.09 | Fair | CLR | 18 | 7 | 49% | 75.87 | 0.0 | |||||||
| 05 | 07:55 | Calm | 16.09 | Partly Cloudy | SCT120 | 17 | 7 | 52% | 75.87 | 0.0 | |||||||
| 05 | 07:35 | S 11 | 16.09 | Partly Cloudy | SCT120 | 17 | 7 | 52% | 75.84 | 0.0 | |||||||
| 05 | 07:15 | S 6 | 16.09 | Partly Cloudy | SCT100 | 16 | 7 | 55% | 75.84 | 0.0 | |||||||
| 05 | 06:55 | Calm | 16.09 | Fair | CLR | 15 | 7 | 59% | 75.82 | 0.0 | |||||||
| 05 | 06:35 | S 6 | 16.09 | Partly Cloudy | SCT110 | 15 | 7 | 59% | 75.82 | 0.0 | |||||||
| 05 | 06:15 | S 11 | 16.09 | Mostly Cloudy | SCT065 BKN110 | 15 | 7 | 59% | 75.82 | 0.0 | |||||||
| 05 | 05:55 | S 6 | 16.09 | Partly Cloudy | SCT095 | 15 | 7 | 59% | 75.79 | 0.0 | |||||||
| 05 | 05:35 | Calm | 16.09 | Mostly Cloudy | BKN095 | 15 | 7 | 59% | 75.79 | 0.0 | |||||||
| 05 | 05:15 | Calm | 16.09 | Overcast | OVC095 | 14 | 7 | 63% | 75.77 | 0.0 | |||||||
| 05 | 04:55 | S 9 | 16.09 | Overcast | OVC095 | 14 | 8 | 67% | 75.77 | 0.0 | |||||||
| 05 | 04:35 | S 6 | 16.09 | Overcast | OVC075 | 15 | 8 | 63% | 75.79 | 0.0 | |||||||
| 05 | 04:15 | S 6 | 16.09 | Light Rain | SCT065 OVC075 | 15 | 8 | 63% | 75.77 | 0.0 | |||||||
| 05 | 03:55 | S 6 | 16.09 | Mostly Cloudy | SCT065 BKN075 BKN090 | 14 | 6 | 59% | 75.79 | 0.0 | |||||||
| 05 | 03:35 | Calm | 16.09 | Thunderstorm in Vicinity | SCT075 BKN090 | 13 | 6 | 63% | 75.77 | 0.0 | |||||||
| 05 | 03:15 | Calm | 16.09 | Mostly Cloudy | BKN075 | 13 | 5 | 59% | 75.79 | 0.0 | |||||||
| 05 | 02:55 | Calm | 16.09 | Fair | CLR | 13 | 5 | 59% | 75.79 | 0.0 | |||||||
| 05 | 02:35 | Calm | 16.09 | Partly Cloudy | SCT075 SCT120 | 15 | 5 | 51% | 75.82 | 0.0 | |||||||
| 05 | 02:15 | Calm | 16.09 | Mostly Cloudy | SCT075 BKN120 | 15 | 5 | 51% | 75.82 | 0.0 | |||||||
| 05 | 01:55 | Calm | 16.09 | Mostly Cloudy | SCT075 BKN090 BKN120 | 15 | 5 | 51% | 75.82 | 0.0 | |||||||
| 05 | 01:35 | Calm | 16.09 | Overcast | SCT075 BKN090 OVC120 | 15 | 5 | 51% | 75.82 | 0.0 | |||||||
| 05 | 01:15 | S 6 | 16.09 | Mostly Cloudy | SCT100 BKN120 | 15 | 4 | 48% | 75.82 | 0.0 | |||||||
| 05 | 00:55 | S 7 | 16.09 | Mostly Cloudy | BKN100 | 15 | 4 | 48% | 75.79 | 0.0 | |||||||
| 05 | 00:35 | S 7 | 16.09 | Mostly Cloudy | BKN100 | 15 | 3 | 45% | 75.79 | 0.0 | |||||||
| 05 | 00:15 | S 7 | 16.09 | Partly Cloudy | SCT110 | 15 | 3 | 45% | 75.79 | 0.0 | |||||||
| 04 | 23:55 | S 9 | 16.09 | Fair | CLR | 15 | 3 | 45% | 75.79 | 0.0 | |||||||
| 04 | 23:35 | SE 7 | 16.09 | Fair | CLR | 15 | 3 | 45% | 75.77 | 0.0 | |||||||
| 04 | 23:15 | S 13 | 16.09 | Fair | CLR | 15 | 3 | 45% | 75.77 | 0.0 | |||||||
| 04 | 22:55 | SE 9 | 16.09 | Fair | CLR | 16 | 3 | 42% | 75.79 | 0.0 | |||||||
| 04 | 22:35 | SE 11 | 16.09 | Fair | CLR | 16 | 3 | 42% | 75.79 | 0.0 | |||||||
| 04 | 22:15 | SE 11 | 16.09 | Fair | CLR | 16 | 3 | 42% | 75.82 | 0.0 | |||||||
| 04 | 21:55 | S 9 | 16.09 | Partly Cloudy | SCT075 | 16 | 3 | 42% | 75.82 | 0.0 | |||||||
| 04 | 21:35 | S 9 | 16.09 | Partly Cloudy | SCT075 | 16 | 3 | 42% | 75.79 | 0.0 | |||||||
| 04 | 21:15 | S 13 | 16.09 | Fair | CLR | 16 | 3 | 42% | 75.79 | 0.0 | |||||||
| 04 | 20:55 | S 13 G 26 | 16.09 | Fair | CLR | 17 | 3 | 39% | 75.77 | 0.0 | |||||||
| 04 | 20:35 | S 9 | 16.09 | Fair | CLR | 17 | 3 | 39% | 75.77 | 0.0 | |||||||
| 04 | 20:15 | S 7 | 16.09 | Fair | CLR | 18 | 2 | 34% | 75.74 | 0.0 | |||||||
| 04 | 19:55 | S 7 | 16.09 | Fair | CLR | 18 | 2 | 34% | 75.74 | 0.0 | |||||||
| 04 | 19:35 | S 7 | 16.09 | Fair | CLR | 18 | 2 | 34% | 75.74 | 0.0 | |||||||
| 04 | 19:15 | S 19 G 30 | 16.09 | Fair | CLR | 19 | 2 | 32% | 75.72 | 0.0 | |||||||
| 04 | 18:55 | S 11 G 31 | 16.09 | Fair | CLR | 20 | 2 | 30% | 75.72 | 0.0 | |||||||
| 04 | 18:35 | S 11 | 16.09 | Fair | CLR | 20 | 2 | 30% | 75.69 | 0.0 | |||||||
| 04 | 18:15 | S 13 | 16.09 | Fair | CLR | 20 | 2 | 30% | 75.69 | 0.0 | |||||||
| 04 | 17:55 | S 13 | 16.09 | Partly Cloudy | SCT080 | 20 | 2 | 30% | 75.72 | 0.0 | |||||||
| 04 | 17:35 | S 13 | 16.09 | Partly Cloudy | SCT070 SCT085 | 21 | 1 | 27% | 75.72 | 0.0 | |||||||
| 04 | 17:15 | S 13 | 16.09 | Partly Cloudy | SCT070 | 21 | 1 | 27% | 75.72 | 0.0 | |||||||
| 04 | 16:55 | S 7 | 16.09 | Partly Cloudy | SCT070 | 21 | 1 | 27% | 75.74 | 0.0 | |||||||
| 04 | 16:35 | SW 9 | 16.09 | Partly Cloudy | SCT080 | 21 | 0 | 25% | 75.74 | 0.0 | |||||||
| 04 | 16:15 | SW 9 | 16.09 | Partly Cloudy | SCT080 | 21 | 0 | 25% | 75.77 | 0.0 | |||||||
| 04 | 15:55 | SW 7 | 16.09 | Mostly Cloudy | BKN070 | 21 | 1 | 27% | 75.77 | 0.0 | |||||||
| 04 | 15:35 | SW 9 | 16.09 | Mostly Cloudy | BKN070 | 20 | 0 | 26% | 75.79 | 0.0 | |||||||
| 04 | 15:15 | SW 9 G 26 | 16.09 | Mostly Cloudy | BKN070 | 20 | 1 | 28% | 75.79 | 0.0 | |||||||
| 04 | 14:55 | SW 11 | 16.09 | Overcast | OVC070 | 20 | 1 | 28% | 75.82 | 0.0 | |||||||
| 04 | 14:35 | SW 9 | 16.09 | Overcast | OVC070 | 19 | 0 | 28% | 75.82 | 0.0 | |||||||
| 04 | 14:15 | S 9 | 16.09 | Mostly Cloudy | BKN070 | 19 | 0 | 28% | 75.84 | 0.0 | |||||||
| 04 | 13:55 | SW 13 G 28 | 16.09 | Mostly Cloudy | BKN070 | 19 | 0 | 28% | 75.84 | 0.0 | |||||||
| 04 | 13:35 | SW 15 | 16.09 | Partly Cloudy | SCT070 | 18 | 0 | 30% | 75.87 | 0.0 | |||||||
| 04 | 13:15 | SW 9 | 16.09 | Fair | CLR | 19 | 0 | 28% | 75.87 | 0.0 | |||||||
| 04 | 12:55 | W 9 | 16.09 | Fair | CLR | 18 | 0 | 30% | 75.9 | 0.0 | |||||||
| 04 | 12:35 | SW 11 | 16.09 | Fair | CLR | 18 | 0 | 30% | 75.92 | 0.0 | |||||||
| 04 | 12:15 | SW 11 G 30 | 16.09 | Fair | CLR | 18 | 0 | 30% | 75.95 | 0.0 | |||||||
| 04 | 11:55 | SW 15 | 16.09 | Partly Cloudy | SCT060 | 17 | 0 | 32% | 75.95 | 0.0 | |||||||
| 04 | 11:35 | SW 9 | 16.09 | Partly Cloudy | SCT060 | 17 | -1 | 30% | 75.97 | 0.0 | |||||||
| 04 | 11:15 | S 15 G 30 | 16.09 | Fair | CLR | 17 | -1 | 30% | 76 | 0.0 | |||||||
| 04 | 10:55 | SW 11 | 16.09 | Fair | CLR | 16 | -2 | 29% | 76 | 0.0 | |||||||
| 04 | 10:35 | SW 13 | 16.09 | Fair | CLR | 16 | -2 | 29% | 76 | 0.0 | |||||||
| 04 | 10:15 | SW 17 G 26 | 16.09 | Fair | CLR | 16 | -2 | 29% | 76 | 0.0 | |||||||
| 04 | 09:55 | S 13 | 16.09 | Partly Cloudy | SCT100 | 15 | -2 | 31% | 76 | 0.0 | |||||||
| 04 | 09:35 | S 9 | 16.09 | Mostly Cloudy | SCT060 BKN100 | 14 | -2 | 33% | 76.02 | 0.0 | |||||||
| 04 | 09:15 | SW 6 | 16.09 | Overcast | OVC060 | 13 | -3 | 33% | 76.02 | 0.0 | |||||||
| 04 | 08:55 | SW 9 | 16.09 | Overcast | OVC060 | 12 | -3 | 35% | 76.02 | 0.0 | |||||||
| 04 | 08:35 | S 6 | 16.09 | Overcast | OVC060 | 12 | -3 | 35% | 76.05 | 0.0 | |||||||
| 04 | 08:15 | S 7 | 16.09 | Overcast | OVC060 | 12 | -3 | 35% | 76.05 | 0.0 | |||||||
| 04 | 07:55 | SW 6 | 16.09 | Mostly Cloudy | BKN060 | 12 | -3 | 35% | 76.05 | 0.0 | |||||||
| 04 | 07:35 | SW 9 | 16.09 | Partly Cloudy | SCT060 | 11 | -3 | 38% | 76.05 | 0.0 | |||||||
| 04 | 07:15 | SW 7 | 16.09 | Fair | CLR | 10 | -3 | 40% | 9 | 76.02 | 0.0 | ||||||
| 04 | 06:55 | Calm | 16.09 | Fair | CLR | 9 | -3 | 43% | 76.02 | 0.0 | |||||||
| 04 | 06:35 | Calm | 16.09 | Fair | CLR | 7 | -3 | 49% | 76.02 | 0.0 | |||||||
| 04 | 06:15 | Calm | 16.09 | Fair | CLR | 7 | -3 | 49% | 76.02 | 0.0 | |||||||
| 04 | 05:55 | Calm | 16.09 | Fair | CLR | 7 | -3 | 49% | 76.02 | 0.0 | |||||||
| 04 | 05:35 | Calm | 16.09 | Fair | CLR | 7 | -3 | 49% | 76.02 | 0.0 | |||||||
| 04 | 05:15 | Calm | 16.09 | Fair | CLR | 8 | -3 | 46% | 76.02 | 0.0 | |||||||
| 04 | 04:55 | Calm | 16.09 | Fair | CLR | 8 | -3 | 46% | 76.05 | 0.0 | |||||||
| Date | Time (edt) | Wind (kph) | Vis. (km) | Weather | Sky Cond. | Air | Dwpt | Max. | Min. | Relative Humidity | Wind Chill (°C) | Heat Index (°C) | altimeter (cm) | sea level (mb) | 1 hr | 3 hr | 6 hr |
| 6 hour | |||||||||||||||||
| Temperature (ºC) | Pressure | Precipitation (cm) | |||||||||||||||